Time;durP1;ratioP1;P1;durP2;ratioP2;P2;SDS_P1;SDS_P2;PMS_P1;PMS_P2;Temp;Humidity;BMP_temperature;BMP_pressure;BME280_temperature;BME280_humidity;BME280_pressure;Samples;Min_cycle;Max_cycle;Signal;HPM_P1;HPM_P2
2022/04/03 00:00:26;;;;;;;7.05;3.85;;;3.00;95.30;;;;;;5139840;27;20046;-76
2022/04/03 00:02:52;;;;;;;8.93;3.65;;;3.10;95.30;;;;;;5139485;27;20103;-76
2022/04/03 00:05:19;;;;;;;9.15;3.70;;;3.00;95.20;;;;;;5139529;27;20043;-76
2022/04/03 00:07:46;;;;;;;6.55;4.05;;;3.00;95.30;;;;;;5122571;27;20054;-76
2022/04/03 00:10:13;;;;;;;9.55;4.18;;;2.90;95.20;;;;;;5139298;27;20097;-76
2022/04/03 00:12:40;;;;;;;7.93;4.00;;;2.80;95.40;;;;;;5157936;27;20082;-76
2022/04/03 00:15:06;;;;;;;7.03;3.60;;;2.70;95.50;;;;;;5139596;27;20125;-76
2022/04/03 00:17:32;;;;;;;6.80;3.72;;;2.80;95.50;;;;;;5157919;27;20374;-76
2022/04/03 00:19:57;;;;;;;10.18;3.50;;;2.90;95.30;;;;;;5138839;27;20046;-76
2022/04/03 00:22:24;;;;;;;5.65;3.50;;;2.90;95.20;;;;;;5121996;27;20458;-75
2022/04/03 00:24:51;;;;;;;5.63;3.50;;;2.80;95.30;;;;;;5122148;27;20081;-76
2022/04/03 00:27:17;;;;;;;8.07;3.30;;;2.70;95.40;;;;;;5138639;27;20111;-76
2022/04/03 00:29:43;;;;;;;8.80;3.97;;;2.70;95.50;;;;;;5138504;27;20042;-76
2022/04/03 00:32:09;;;;;;;7.03;3.83;;;2.70;95.50;;;;;;5138853;27;20039;-76
2022/04/03 00:34:35;;;;;;;7.93;3.35;;;2.70;95.50;;;;;;5139705;27;20050;-76
2022/04/03 00:37:01;;;;;;;7.13;3.53;;;2.80;95.60;;;;;;5139174;27;20051;-76
2022/04/03 00:39:26;;;;;;;10.55;3.95;;;2.80;95.60;;;;;;5121768;27;20168;-76
2022/04/03 00:41:53;;;;;;;6.82;3.65;;;2.80;95.50;;;;;;5139095;27;20481;-76
2022/04/03 00:44:19;;;;;;;6.85;3.40;;;2.80;95.50;;;;;;5138760;27;20469;-76
2022/04/03 00:46:46;;;;;;;8.93;3.38;;;2.90;95.60;;;;;;5139165;27;20049;-76
2022/04/03 00:49:13;;;;;;;6.00;3.42;;;2.90;95.50;;;;;;5138913;27;20091;-76
2022/04/03 00:51:38;;;;;;;9.43;3.72;;;2.80;95.70;;;;;;5138328;27;20118;-76
2022/04/03 00:54:05;;;;;;;7.40;3.50;;;2.70;95.70;;;;;;5138601;27;20125;-76
2022/04/03 00:56:34;;;;;;;6.40;3.25;;;2.80;95.70;;;;;;5139495;27;20122;-76
2022/04/03 00:59:01;;;;;;;8.77;3.58;;;2.80;95.70;;;;;;5138669;27;20055;-76
2022/04/03 01:01:26;;;;;;;6.03;3.35;;;2.80;95.70;;;;;;5138472;27;20054;-76
2022/04/03 01:03:52;;;;;;;8.57;3.50;;;2.80;95.80;;;;;;5138777;27;20130;-76
2022/04/03 01:06:17;;;;;;;7.40;3.42;;;2.70;95.70;;;;;;5156806;27;20085;-76
2022/04/03 01:08:43;;;;;;;5.72;3.00;;;2.70;95.70;;;;;;5138604;27;20106;-76
2022/04/03 01:11:12;;;;;;;8.50;3.60;;;2.60;95.60;;;;;;5138436;27;20039;-76
2022/04/03 01:13:49;;;;;;;6.32;3.35;;;2.60;95.50;;;;;;5138621;27;20042;-76
2022/04/03 01:16:15;;;;;;;6.25;3.25;;;2.70;95.90;;;;;;5156755;27;20042;-76
2022/04/03 01:18:41;;;;;;;6.88;3.25;;;2.60;95.60;;;;;;5137896;27;20540;-76
2022/04/03 01:21:07;;;;;;;7.57;3.70;;;2.60;95.80;;;;;;5138330;27;20046;-76
2022/04/03 01:23:32;;;;;;;6.70;2.65;;;2.60;95.70;;;;;;5120632;27;20137;-76
2022/04/03 01:25:58;;;;;;;6.30;3.42;;;2.50;95.70;;;;;;5137832;27;20465;-76
2022/04/03 01:28:25;;;;;;;6.60;3.53;;;2.50;95.70;;;;;;5137936;27;20046;-76
2022/04/03 01:30:50;;;;;;;9.80;3.40;;;2.40;95.80;;;;;;5137881;27;20049;-76
2022/04/03 01:33:17;;;;;;;6.05;3.60;;;2.40;96.00;;;;;;5120946;27;20043;-76
2022/04/03 01:35:43;;;;;;;8.07;3.55;;;2.30;95.90;;;;;;5138000;27;20039;-76
2022/04/03 01:38:09;;;;;;;5.40;3.17;;;2.40;96.00;;;;;;5137903;27;20046;-76
2022/04/03 01:40:35;;;;;;;8.35;3.50;;;2.40;95.90;;;;;;5137313;27;20050;-76
2022/04/03 01:43:03;;;;;;;9.70;3.25;;;2.50;96.00;;;;;;5137626;27;20130;-76
2022/04/03 01:45:28;;;;;;;5.38;2.78;;;2.40;95.80;;;;;;5137664;27;20099;-76
2022/04/03 01:47:54;;;;;;;5.30;3.13;;;2.40;95.80;;;;;;5137827;27;20072;-76
2022/04/03 01:50:20;;;;;;;6.95;2.63;;;2.30;95.90;;;;;;5137793;27;20051;-76
2022/04/03 01:52:46;;;;;;;7.82;3.13;;;2.30;95.90;;;;;;5137618;27;20089;-76
2022/04/03 01:55:11;;;;;;;6.40;3.10;;;2.30;96.00;;;;;;5137714;27;20047;-76
2022/04/03 01:57:38;;;;;;;7.40;2.92;;;2.30;95.90;;;;;;5137611;27;20095;-76
2022/04/03 02:00:06;;;;;;;5.80;2.88;;;2.30;96.10;;;;;;5137296;27;20051;-76
2022/04/03 02:02:32;;;;;;;4.63;2.35;;;2.30;96.00;;;;;;5137566;27;20047;-76
2022/04/03 02:04:58;;;;;;;6.07;2.58;;;2.30;96.10;;;;;;5137268;27;20074;-76
2022/04/03 02:07:25;;;;;;;4.82;2.42;;;2.40;96.10;;;;;;5120317;27;20081;-76
2022/04/03 02:09:51;;;;;;;5.75;2.67;;;2.30;96.10;;;;;;5137563;27;20114;-76
2022/04/03 02:12:16;;;;;;;7.18;2.40;;;2.40;96.10;;;;;;5137133;27;20046;-76
2022/04/03 02:14:42;;;;;;;5.97;2.67;;;2.40;96.20;;;;;;5137547;27;20122;-76
2022/04/03 02:17:08;;;;;;;6.20;2.42;;;2.30;96.20;;;;;;5120285;27;20085;-77
2022/04/03 02:19:33;;;;;;;5.03;2.28;;;2.40;96.20;;;;;;5136672;27;20053;-76
2022/04/03 02:21:59;;;;;;;5.65;2.40;;;2.50;96.30;;;;;;5120257;27;20050;-76
2022/04/03 02:24:25;;;;;;;5.35;2.42;;;2.40;96.20;;;;;;5136768;27;20405;-77
2022/04/03 02:26:51;;;;;;;7.38;2.67;;;2.40;96.50;;;;;;5137206;27;20130;-77
2022/04/03 02:29:16;;;;;;;5.85;2.47;;;2.50;96.70;;;;;;5136956;27;20046;-77
2022/04/03 02:31:42;;;;;;;6.10;2.47;;;2.60;96.80;;;;;;5137506;27;20130;-76
2022/04/03 02:34:08;;;;;;;4.50;2.05;;;2.60;97.00;;;;;;5137249;27;20102;-76
2022/04/03 02:36:34;;;;;;;5.68;2.20;;;2.80;97.00;;;;;;5119641;27;20129;-76
2022/04/03 02:39:00;;;;;;;4.65;2.28;;;2.90;97.00;;;;;;5136889;27;20046;-76
2022/04/03 02:41:27;;;;;;;4.90;2.50;;;2.80;96.90;;;;;;5137196;27;20051;-76
2022/04/03 02:43:53;;;;;;;4.63;2.17;;;2.90;97.10;;;;;;5136725;27;20051;-76
2022/04/03 02:46:19;;;;;;;4.20;2.35;;;3.00;97.10;;;;;;5119865;27;20047;-77
2022/04/03 02:48:44;;;;;;;6.95;2.65;;;3.10;97.20;;;;;;5136534;27;20058;-77
2022/04/03 02:51:10;;;;;;;5.82;2.58;;;3.10;97.20;;;;;;5137348;27;20477;-77
2022/04/03 02:53:36;;;;;;;4.85;2.50;;;3.10;97.30;;;;;;5124470;27;20051;-77
2022/04/03 02:56:01;;;;;;;7.15;2.47;;;3.20;97.50;;;;;;5141207;27;20491;-76
2022/04/03 02:58:27;;;;;;;6.55;3.13;;;3.20;97.60;;;;;;5124050;27;20129;-76
2022/04/03 03:00:53;;;;;;;6.45;2.70;;;3.30;97.80;;;;;;5123873;27;20050;-76
2022/04/03 03:03:18;;;;;;;5.97;2.28;;;3.40;97.80;;;;;;5140890;27;20048;-76
2022/04/03 03:05:45;;;;;;;6.63;2.78;;;3.40;97.80;;;;;;5140801;27;20548;-76
2022/04/03 03:08:11;;;;;;;7.13;2.47;;;3.40;97.80;;;;;;5140628;27;20047;-76
2022/04/03 03:10:37;;;;;;;5.45;2.53;;;3.50;98.10;;;;;;5159070;27;20054;-76
2022/04/03 03:13:03;;;;;;;5.65;2.47;;;3.50;98.20;;;;;;5140594;27;20050;-76
2022/04/03 03:15:29;;;;;;;7.45;2.70;;;3.60;98.30;;;;;;5140363;27;20050;-77
2022/04/03 03:17:55;;;;;;;3.63;1.90;;;3.60;98.40;;;;;;5140666;27;20098;-76
2022/04/03 03:20:21;;;;;;;5.00;2.22;;;3.70;98.70;;;;;;5139931;27;20054;-76
2022/04/03 03:22:48;;;;;;;4.80;1.98;;;3.70;98.90;;;;;;5140161;27;20046;-76
2022/04/03 03:25:14;;;;;;;2.63;1.25;;;3.70;99.20;;;;;;5140408;27;20050;-76
2022/04/03 03:27:40;;;;;;;4.22;1.20;;;3.60;99.40;;;;;;5123531;27;20049;-76
2022/04/03 03:30:07;;;;;;;3.25;1.23;;;3.70;99.60;;;;;;5140323;27;20042;-76
2022/04/03 03:32:33;;;;;;;2.53;1.10;;;3.80;99.70;;;;;;5140569;27;20034;-76
2022/04/03 03:34:59;;;;;;;2.40;1.42;;;3.90;99.50;;;;;;5140506;27;20044;-77
2022/04/03 03:37:25;;;;;;;2.30;1.15;;;3.90;99.70;;;;;;5158623;27;20049;-77
2022/04/03 03:39:51;;;;;;;2.15;1.30;;;3.90;99.80;;;;;;5122891;27;20133;-77
2022/04/03 03:42:17;;;;;;;5.40;1.55;;;4.00;99.80;;;;;;5158215;27;20434;-76
2022/04/03 03:44:42;;;;;;;5.40;1.92;;;4.10;99.70;;;;;;5122962;27;20130;-77
2022/04/03 03:47:08;;;;;;;6.03;2.08;;;4.00;99.30;;;;;;5158472;27;20095;-77
2022/04/03 03:49:34;;;;;;;3.80;2.03;;;4.00;99.40;;;;;;5139987;27;20479;-77
2022/04/03 03:52:00;;;;;;;5.20;2.05;;;3.90;99.50;;;;;;5139948;27;20430;-77
2022/04/03 03:54:26;;;;;;;6.65;2.92;;;3.80;99.50;;;;;;5139981;27;20133;-77
2022/04/03 03:56:51;;;;;;;9.63;3.30;;;3.90;99.60;;;;;;5139788;27;20042;-76
2022/04/03 03:59:17;;;;;;;7.57;3.42;;;3.90;99.70;;;;;;5139906;27;20053;-77
2022/04/03 04:01:43;;;;;;;5.97;3.08;;;3.80;99.70;;;;;;5139539;27;20050;-77
2022/04/03 04:04:09;;;;;;;6.38;3.42;;;3.70;99.70;;;;;;5158139;27;20549;-76
2022/04/03 04:06:34;;;;;;;7.72;3.50;;;3.70;99.90;;;;;;5139815;27;20078;-76
2022/04/03 04:09:00;;;;;;;5.93;2.28;;;3.80;99.90;;;;;;5139795;27;20073;-76
2022/04/03 04:11:26;;;;;;;4.55;2.88;;;3.80;99.90;;;;;;5122711;27;20105;-77
2022/04/03 04:13:51;;;;;;;6.10;2.63;;;3.90;99.90;;;;;;5157969;27;20050;-77
2022/04/03 04:16:17;;;;;;;7.22;3.15;;;4.00;99.90;;;;;;5139614;27;20073;-77
2022/04/03 04:18:43;;;;;;;3.85;2.75;;;3.90;99.80;;;;;;5139113;27;20069;-77
2022/04/03 04:21:11;;;;;;;7.07;2.45;;;3.80;99.70;;;;;;5157786;27;20046;-77
2022/04/03 04:23:37;;;;;;;5.03;2.40;;;3.80;99.80;;;;;;5139435;27;20065;-78
2022/04/03 04:26:03;;;;;;;5.63;2.65;;;3.80;99.80;;;;;;5139165;27;20445;-77
2022/04/03 04:28:29;;;;;;;5.97;2.63;;;3.70;99.70;;;;;;5139048;27;20389;-77
2022/04/03 04:30:57;;;;;;;6.50;2.47;;;3.70;99.60;;;;;;5138906;27;20130;-77
2022/04/03 04:33:24;;;;;;;7.18;2.75;;;3.70;99.80;;;;;;5138988;27;20501;-77
2022/04/03 04:35:50;;;;;;;8.82;2.53;;;3.60;99.70;;;;;;5138633;27;20125;-77
2022/04/03 04:38:17;;;;;;;6.47;2.85;;;3.60;99.70;;;;;;5157352;27;20094;-78
2022/04/03 04:40:43;;;;;;;6.32;3.13;;;3.70;99.80;;;;;;5139079;27;20125;-78
2022/04/03 04:43:09;;;;;;;8.48;2.22;;;3.70;99.70;;;;;;5157335;27;20055;-78
2022/04/03 04:45:35;;;;;;;4.55;1.98;;;3.60;99.60;;;;;;5138696;27;20055;-77
2022/04/03 04:48:01;;;;;;;5.35;2.10;;;3.50;99.90;;;;;;5138492;27;20179;-78
2022/04/03 04:50:28;;;;;;;3.75;1.90;;;3.50;99.90;;;;;;5156653;27;20049;-78
2022/04/03 04:52:56;;;;;;;3.63;2.33;;;3.50;99.80;;;;;;5138566;27;20084;-77
2022/04/03 04:55:22;;;;;;;5.45;2.08;;;3.50;99.70;;;;;;5138550;27;20057;-78
2022/04/03 04:57:53;;;;;;;2.80;1.83;;;3.50;99.60;;;;;;5157121;27;20055;-78
2022/04/03 05:00:20;;;;;;;4.47;1.83;;;3.50;99.60;;;;;;5138463;27;20065;-78
2022/04/03 05:02:46;;;;;;;5.45;2.22;;;3.50;99.50;;;;;;5138930;27;20047;-78
2022/04/03 05:05:17;;;;;;;4.32;1.92;;;3.40;99.50;;;;;;5156906;27;20394;-79
2022/04/03 05:07:44;;;;;;;3.15;1.90;;;3.50;99.40;;;;;;5138609;27;20054;-78
2022/04/03 05:10:13;;;;;;;5.03;1.90;;;3.40;99.20;;;;;;5121772;27;20065;-78
2022/04/03 05:12:38;;;;;;;4.18;2.13;;;3.20;99.30;;;;;;5138367;27;20054;-78
2022/04/03 05:15:06;;;;;;;4.88;2.20;;;3.10;99.40;;;;;;5137651;27;20423;-78
2022/04/03 05:17:32;;;;;;;4.50;2.70;;;3.10;99.40;;;;;;5138101;27;20058;-78
2022/04/03 05:19:59;;;;;;;4.47;2.17;;;3.10;99.40;;;;;;5137637;27;20073;-78
2022/04/03 05:22:26;;;;;;;8.38;2.40;;;2.90;99.30;;;;;;5138334;27;20055;-78
2022/04/03 05:24:53;;;;;;;7.07;2.78;;;2.80;99.40;;;;;;5137756;27;20051;-78
2022/04/03 05:27:19;;;;;;;5.88;2.80;;;2.80;99.60;;;;;;5156471;27;20485;-79
2022/04/03 05:29:46;;;;;;;7.13;2.50;;;2.80;99.70;;;;;;5156366;27;20039;-79
2022/04/03 05:32:12;;;;;;;4.95;2.35;;;2.70;99.60;;;;;;5137871;27;20054;-78
2022/04/03 05:34:39;;;;;;;6.53;2.10;;;2.70;99.50;;;;;;5137758;27;20172;-78
2022/04/03 05:37:06;;;;;;;4.03;2.28;;;2.80;99.50;;;;;;5138001;27;20066;-79
2022/04/03 05:39:31;;;;;;;6.75;3.17;;;2.80;99.40;;;;;;5138077;27;20062;-78
2022/04/03 05:41:57;;;;;;;8.88;2.85;;;2.90;99.50;;;;;;5137477;27;20500;-79
2022/04/03 05:44:23;;;;;;;8.07;3.55;;;2.90;99.50;;;;;;5137847;27;20069;-78
2022/04/03 05:46:49;;;;;;;10.30;4.38;;;2.90;99.60;;;;;;5137508;27;20047;-78
2022/04/03 05:49:15;;;;;;;11.57;3.97;;;3.00;99.60;;;;;;5120494;27;20097;-79
2022/04/03 05:51:42;;;;;;;11.05;4.70;;;2.90;99.70;;;;;;5155941;27;20392;-78
2022/04/03 05:54:08;;;;;;;8.70;3.38;;;3.00;99.90;;;;;;5137474;27;20099;-78
2022/04/03 05:56:34;;;;;;;10.63;4.85;;;3.20;99.90;;;;;;5137672;27;20054;-78
2022/04/03 05:59:00;;;;;;;9.38;4.13;;;3.20;99.90;;;;;;5137613;27;20054;-78
2022/04/03 06:01:26;;;;;;;7.00;2.88;;;3.20;99.70;;;;;;5137576;27;20393;-78
2022/04/03 06:03:52;;;;;;;8.50;3.25;;;3.20;99.60;;;;;;5138094;27;20046;-78
2022/04/03 06:06:17;;;;;;;6.85;2.83;;;3.10;99.60;;;;;;5138054;27;20446;-78
2022/04/03 06:08:43;;;;;;;5.78;2.88;;;3.10;99.90;;;;;;5155747;27;20038;-78
2022/04/03 06:11:09;;;;;;;4.88;2.45;;;3.20;99.80;;;;;;5155672;27;20038;-79
2022/04/03 06:13:36;;;;;;;4.70;2.83;;;3.20;99.70;;;;;;5137197;27;20057;-78
2022/04/03 06:16:02;;;;;;;3.67;2.30;;;3.30;99.70;;;;;;5137258;27;20038;-79
2022/04/03 06:18:28;;;;;;;4.90;2.42;;;3.30;99.70;;;;;;5155186;27;20050;-78
2022/04/03 06:20:54;;;;;;;5.72;2.22;;;3.40;99.60;;;;;;5136988;27;20054;-78
2022/04/03 06:23:21;;;;;;;4.20;2.10;;;3.50;99.60;;;;;;5137435;27;20051;-79
2022/04/03 06:25:52;;;;;;;9.00;3.17;;;3.60;99.80;;;;;;5137237;27;20050;-78
2022/04/03 06:28:18;;;;;;;7.00;3.05;;;3.80;99.70;;;;;;5137608;27;20451;-78
2022/04/03 06:30:44;;;;;;;4.65;2.63;;;3.70;99.70;;;;;;5136642;27;20126;-78
2022/04/03 06:33:10;;;;;;;7.25;3.28;;;3.60;99.80;;;;;;5120213;27;20042;-79
2022/04/03 06:35:35;;;;;;;7.95;2.70;;;3.60;99.70;;;;;;5137086;27;20170;-79
2022/04/03 06:38:01;;;;;;;6.20;2.63;;;3.60;99.90;;;;;;5137031;27;20492;-78
2022/04/03 06:40:27;;;;;;;8.55;3.10;;;3.80;99.90;;;;;;5155380;27;20045;-79
2022/04/03 06:42:53;;;;;;;4.15;2.30;;;4.10;99.90;;;;;;5154964;27;20119;-78
2022/04/03 06:45:20;;;;;;;6.68;2.50;;;4.30;99.90;;;;;;5136961;27;20470;-79
2022/04/03 06:47:45;;;;;;;5.30;2.72;;;4.50;99.90;;;;;;5136809;27;20069;-78
2022/04/03 06:50:12;;;;;;;6.10;2.90;;;4.70;99.90;;;;;;5119565;27;20478;-78
2022/04/03 06:52:38;;;;;;;7.90;2.40;;;4.80;99.60;;;;;;5136977;27;20047;-79
2022/04/03 06:55:05;;;;;;;6.20;2.55;;;4.90;99.70;;;;;;5136912;27;20045;-79
2022/04/03 06:57:31;;;;;;;5.95;2.50;;;4.80;99.40;;;;;;5136878;27;20050;-78
2022/04/03 06:59:56;;;;;;;6.15;2.30;;;4.80;99.50;;;;;;5136905;27;20053;-78
2022/04/03 07:02:22;;;;;;;7.45;2.38;;;4.80;99.70;;;;;;5137189;27;20053;-78
2022/04/03 07:04:48;;;;;;;5.43;2.10;;;4.90;99.70;;;;;;5136513;27;20382;-78
2022/04/03 07:07:22;;;;;;;6.25;1.90;;;4.90;99.60;;;;;;5136751;27;20050;-78
2022/04/03 07:09:47;;;;;;;4.55;2.35;;;5.00;99.80;;;;;;5136829;27;20043;-78
2022/04/03 07:12:14;;;;;;;8.40;2.20;;;5.00;99.80;;;;;;5136528;27;20557;-78
2022/04/03 07:14:40;;;;;;;5.65;2.17;;;5.20;99.80;;;;;;5136781;27;20125;-79
2022/04/03 07:17:05;;;;;;;4.90;1.70;;;5.30;99.80;;;;;;5136501;27;20142;-78
2022/04/03 07:19:31;;;;;;;6.28;1.80;;;5.50;99.70;;;;;;5118897;27;20047;-78
2022/04/03 07:21:57;;;;;;;4.57;1.92;;;5.50;99.60;;;;;;5136425;27;20099;-78
2022/04/03 07:24:24;;;;;;;5.13;1.83;;;5.40;99.60;;;;;;5136213;27;20085;-78
2022/04/03 07:26:50;;;;;;;5.28;2.10;;;5.60;99.90;;;;;;5136648;27;20047;-79
2022/04/03 07:29:15;;;;;;;6.55;1.85;;;5.80;99.70;;;;;;5136582;27;20043;-78
2022/04/03 07:31:41;;;;;;;7.28;1.52;;;5.70;99.60;;;;;;5136341;27;20046;-78
2022/04/03 07:34:07;;;;;;;9.57;1.95;;;5.60;99.50;;;;;;5136264;27;20108;-78
2022/04/03 07:36:32;;;;;;;4.22;2.00;;;5.70;99.60;;;;;;5136805;27;20046;-78
2022/04/03 07:38:58;;;;;;;4.22;1.45;;;5.70;99.80;;;;;;5139585;27;20116;-78
2022/04/03 07:41:24;;;;;;;9.55;2.20;;;5.80;99.90;;;;;;5139755;27;20095;-78
2022/04/03 07:43:50;;;;;;;4.22;1.50;;;5.90;99.90;;;;;;5141023;27;20069;-78
2022/04/03 07:46:18;;;;;;;4.50;1.45;;;5.80;99.90;;;;;;5122514;27;20081;-78
2022/04/03 07:48:45;;;;;;;7.47;1.40;;;5.80;99.90;;;;;;5139775;27;20101;-78
2022/04/03 07:51:11;;;;;;;4.03;1.50;;;6.00;99.90;;;;;;5140286;27;20238;-78
2022/04/03 07:53:38;;;;;;;6.13;1.20;;;6.00;99.80;;;;;;5140103;27;20477;-78
2022/04/03 07:56:05;;;;;;;5.40;1.17;;;6.00;99.90;;;;;;5139777;27;20047;-78
2022/04/03 07:58:35;;;;;;;4.85;1.10;;;6.20;99.80;;;;;;5139986;27;20046;-75
2022/04/03 08:01:01;;;;;;;3.85;0.90;;;6.30;99.70;;;;;;5139935;27;20050;-76
2022/04/03 08:03:27;;;;;;;4.22;0.77;;;6.40;99.70;;;;;;5143276;27;20034;-75
2022/04/03 08:05:56;;;;;;;4.05;0.88;;;6.60;99.40;;;;;;5146044;27;20076;-74
2022/04/03 08:08:22;;;;;;;3.58;0.82;;;6.80;99.40;;;;;;5141127;27;20107;-78
2022/04/03 08:10:50;;;;;;;3.92;0.80;;;6.90;99.10;;;;;;5139522;27;20450;-76
2022/04/03 08:13:16;;;;;;;2.83;0.57;;;6.90;98.90;;;;;;5139386;27;20099;-75
2022/04/03 08:15:42;;;;;;;3.03;0.50;;;6.90;98.70;;;;;;5139359;27;20427;-75
2022/04/03 08:18:07;;;;;;;6.05;1.08;;;7.00;98.80;;;;;;5139629;27;20043;-75
2022/04/03 08:20:33;;;;;;;1.77;0.80;;;7.00;98.90;;;;;;5139218;27;20070;-75
2022/04/03 08:23:03;;;;;;;4.60;0.70;;;7.10;99.00;;;;;;5139535;27;20042;-75
2022/04/03 08:25:31;;;;;;;1.77;0.60;;;7.30;99.00;;;;;;5139022;27;20059;-75
2022/04/03 08:27:57;;;;;;;3.28;1.17;;;7.30;99.00;;;;;;5139423;27;20485;-75
2022/04/03 08:30:27;;;;;;;1.70;0.73;;;7.30;98.90;;;;;;5139271;27;20086;-75
2022/04/03 08:32:53;;;;;;;3.25;0.57;;;7.20;98.80;;;;;;5139314;27;20130;-75
2022/04/03 08:35:22;;;;;;;5.07;1.00;;;7.20;98.50;;;;;;5122734;27;20050;-82
2022/04/03 08:37:48;;;;;;;4.38;0.60;;;7.00;98.20;;;;;;5105423;27;20431;-81
2022/04/03 08:40:14;;;;;;;3.13;0.77;;;7.00;98.30;;;;;;5139144;27;20047;-81
2022/04/03 08:42:40;;;;;;;4.57;1.08;;;7.20;98.60;;;;;;5139106;27;20046;-81
2022/04/03 08:45:11;;;;;;;3.00;0.73;;;7.40;98.60;;;;;;5139137;27;20126;-81
2022/04/03 08:48:00;;;;;;;4.45;1.05;;;7.50;98.60;;;;;;5121963;27;20046;-80
2022/04/03 08:50:31;;;;;;;3.78;0.70;;;7.60;98.50;;;;;;5137515;27;20453;-76
2022/04/03 08:53:00;;;;;;;3.33;0.80;;;7.70;98.10;;;;;;5139361;27;20065;-78
2022/04/03 08:55:26;;;;;;;4.72;0.98;;;7.70;97.70;;;;;;5139671;27;20049;-77
2022/04/03 08:57:53;;;;;;;6.93;0.70;;;7.60;98.00;;;;;;5138462;27;20046;-77
2022/04/03 09:00:19;;;;;;;1.67;0.57;;;7.70;97.70;;;;;;5121440;27;20057;-79
2022/04/03 09:02:46;;;;;;;3.45;0.70;;;7.60;97.30;;;;;;5137457;27;20047;-78
2022/04/03 09:05:12;;;;;;;4.40;0.70;;;7.50;97.10;;;;;;5138325;27;20486;-74
2022/04/03 09:07:38;;;;;;;5.60;0.60;;;7.50;97.70;;;;;;5158520;27;20054;-73
2022/04/03 09:10:13;;;;;;;2.40;0.63;;;7.80;97.90;;;;;;5138674;27;20038;-75
2022/04/03 09:12:46;;;;;;;5.88;0.85;;;8.10;97.70;;;;;;5138716;27;20051;-73
2022/04/03 09:15:17;;;;;;;4.97;0.57;;;8.40;97.40;;;;;;5159106;27;20055;-75
2022/04/03 09:17:44;;;;;;;3.67;0.25;;;8.40;96.00;;;;;;5138563;27;20524;-74
2022/04/03 09:20:12;;;;;;;3.50;0.70;;;8.30;96.10;;;;;;5137923;27;20058;-74
2022/04/03 09:22:41;;;;;;;4.45;0.60;;;8.40;96.10;;;;;;5138426;27;20123;-74
2022/04/03 09:25:12;;;;;;;3.70;0.60;;;8.50;96.60;;;;;;5137610;27;20086;-73
2022/04/03 09:27:51;;;;;;;2.15;0.45;;;8.30;96.00;;;;;;5138459;27;20500;-74
2022/04/03 09:30:18;;;;;;;3.38;0.45;;;8.20;95.90;;;;;;5137632;27;20051;-75
2022/04/03 09:32:54;;;;;;;1.95;0.40;;;8.10;95.60;;;;;;5136694;27;20473;-75
2022/04/03 09:35:24;;;;;;;3.63;0.88;;;8.30;96.00;;;;;;5117497;27;20047;-74
2022/04/03 09:38:13;;;;;;;4.43;0.38;;;8.10;95.40;;;;;;5117689;27;20096;-74
2022/04/03 09:40:44;;;;;;;3.03;0.30;;;7.70;94.80;;;;;;5117409;27;20443;-74
2022/04/03 09:43:40;;;;;;;2.92;0.35;;;7.40;94.50;;;;;;5117538;27;20059;-73
2022/04/03 09:46:10;;;;;;;5.47;0.52;;;7.60;94.60;;;;;;5117216;27;20107;-73
2022/04/03 09:48:40;;;;;;;6.15;0.52;;;8.10;94.70;;;;;;5116642;27;20100;-83
2022/04/03 09:51:09;;;;;;;7.50;0.57;;;8.40;95.50;;;;;;5117042;27;20078;-82
2022/04/03 09:53:43;;;;;;;21.50;1.23;;;8.40;95.20;;;;;;5116990;27;20089;-81
2022/04/03 09:56:15;;;;;;;38.75;2.20;;;8.30;94.80;;;;;;5116898;27;20047;-81
2022/04/03 09:58:49;;;;;;;8.65;0.60;;;7.90;93.80;;;;;;5117429;27;20126;-78
2022/04/03 10:01:30;;;;;;;7.53;0.70;;;7.70;94.50;;;;;;5116869;27;20047;-79
2022/04/03 10:04:00;;;;;;;7.40;0.52;;;7.70;95.80;;;;;;5117055;27;20047;-81
2022/04/03 10:06:27;;;;;;;5.07;0.40;;;8.10;96.00;;;;;;5100095;27;20051;-81
2022/04/03 10:08:53;;;;;;;2.85;0.22;;;8.30;95.10;;;;;;5117097;27;20053;-81
2022/04/03 10:11:20;;;;;;;3.22;0.40;;;8.40;95.10;;;;;;5116764;27;20082;-81
2022/04/03 10:13:46;;;;;;;3.70;0.30;;;8.60;94.50;;;;;;5116823;27;20397;-80
2022/04/03 10:16:14;;;;;;;1.75;0.32;;;8.60;94.90;;;;;;5099940;28;20096;-77
2022/04/03 10:18:40;;;;;;;2.28;0.30;;;8.70;94.30;;;;;;5116230;28;20050;-79
2022/04/03 10:21:21;;;;;;;2.03;0.30;;;9.00;94.80;;;;;;5117122;27;20047;-76
2022/04/03 10:23:48;;;;;;;1.30;0.20;;;9.50;94.60;;;;;;5116300;27;20054;-79
2022/04/03 10:26:18;;;;;;;1.17;0.40;;;9.50;93.60;;;;;;5117639;28;20391;-79
2022/04/03 10:28:52;;;;;;;4.03;0.60;;;9.10;93.80;;;;;;5116687;28;20051;-73
2022/04/03 10:31:18;;;;;;;3.10;0.50;;;9.20;94.40;;;;;;5116278;28;20043;-73
2022/04/03 10:33:48;;;;;;;4.75;0.47;;;9.10;94.00;;;;;;5116550;28;20100;-73
2022/04/03 10:36:17;;;;;;;3.72;0.70;;;9.00;94.10;;;;;;5117150;28;20047;-73
2022/04/03 10:38:58;;;;;;;5.85;0.47;;;9.10;94.40;;;;;;5116631;28;20046;-72
2022/04/03 10:41:36;;;;;;;3.92;0.55;;;9.40;94.20;;;;;;5117579;28;20103;-80
2022/04/03 10:44:25;;;;;;;4.50;0.65;;;9.50;94.10;;;;;;5116805;28;20474;-87
2022/04/03 10:47:03;;;;;;;3.30;0.63;;;9.60;94.90;;;;;;5116469;28;20111;-72
2022/04/03 10:49:47;;;;;;;5.05;0.60;;;9.60;94.40;;;;;;5116001;28;20051;-69
2022/04/03 10:52:41;;;;;;;4.60;0.75;;;10.10;94.50;;;;;;5118594;28;20047;-71
2022/04/03 10:55:34;;;;;;;5.55;0.82;;;10.60;93.90;;;;;;5117689;28;20092;-72
2022/04/03 10:58:04;;;;;;;2.60;0.50;;;10.50;93.00;;;;;;5099600;28;20036;-73
2022/04/03 11:00:31;;;;;;;3.65;0.30;;;10.60;93.10;;;;;;5134511;28;20039;-75
2022/04/03 11:02:56;;;;;;;2.22;0.30;;;10.80;92.30;;;;;;5116533;28;20385;-72
2022/04/03 11:05:22;;;;;;;4.22;0.47;;;10.80;92.10;;;;;;5116050;28;20130;-72
2022/04/03 11:07:49;;;;;;;5.18;0.60;;;10.60;92.80;;;;;;5116043;28;20047;-85
2022/04/03 11:10:15;;;;;;;3.60;0.60;;;9.80;93.90;;;;;;5116031;28;20142;-72
2022/04/03 11:12:53;;;;;;;4.57;0.77;;;9.30;94.80;;;;;;5118021;27;20464;-72
2022/04/03 11:15:20;;;;;;;6.80;1.40;;;8.90;95.40;;;;;;5120756;27;20054;-73
2022/04/03 11:17:53;;;;;;;2.83;0.60;;;8.60;96.20;;;;;;5120394;27;20134;-73
2022/04/03 11:20:39;;;;;;;5.00;0.60;;;8.40;96.70;;;;;;5119660;27;20119;-73
2022/04/03 11:23:08;;;;;;;5.53;1.00;;;8.20;96.90;;;;;;5120396;27;20504;-72
2022/04/03 11:25:33;;;;;;;2.60;0.65;;;8.20;97.10;;;;;;5119538;27;20055;-72
2022/04/03 11:27:59;;;;;;;5.22;0.63;;;8.40;97.00;;;;;;5103010;27;20055;-72
2022/04/03 11:30:25;;;;;;;5.47;0.50;;;8.30;97.10;;;;;;5102835;27;20051;-73
2022/04/03 11:32:51;;;;;;;3.40;0.57;;;8.40;96.60;;;;;;5103233;27;20043;-73
2022/04/03 11:35:35;;;;;;;4.85;0.73;;;8.40;96.60;;;;;;5120039;27;20482;-73
2022/04/03 11:38:01;;;;;;;2.53;0.55;;;8.70;96.30;;;;;;5119901;27;20046;-73
2022/04/03 11:40:28;;;;;;;6.07;0.45;;;8.60;95.80;;;;;;5120147;27;20485;-72
2022/04/03 11:43:10;;;;;;;2.72;0.75;;;8.80;95.60;;;;;;5136948;27;20055;-72
2022/04/03 11:45:36;;;;;;;2.50;0.45;;;9.00;95.20;;;;;;5119820;27;20039;-73
2022/04/03 11:48:41;;;;;;;2.85;0.60;;;9.20;95.20;;;;;;5102614;27;20055;-73
2022/04/03 11:51:12;;;;;;;3.95;0.63;;;9.20;95.10;;;;;;5078828;27;20062;-72
2022/04/03 11:53:40;;;;;;;4.53;0.77;;;9.20;95.30;;;;;;5136983;27;20091;-72
2022/04/03 11:56:06;;;;;;;3.45;1.05;;;9.10;95.70;;;;;;5119450;27;20501;-72
2022/04/03 11:58:49;;;;;;;3.50;0.80;;;9.30;95.80;;;;;;5119455;27;20047;-72
2022/04/03 12:01:25;;;;;;;2.13;0.70;;;9.90;95.20;;;;;;5119507;27;20059;-72
2022/04/03 12:04:17;;;;;;;5.85;0.50;;;9.80;95.10;;;;;;5137906;27;20051;-72
2022/04/03 12:06:48;;;;;;;1.98;0.30;;;9.40;94.90;;;;;;5119619;27;20125;-72
2022/04/03 12:09:16;;;;;;;1.17;0.10;;;8.80;95.00;;;;;;5119247;27;20058;-72
2022/04/03 12:11:48;;;;;;;1.40;0.10;;;8.60;94.30;;;;;;5118989;27;20050;-72
2022/04/03 12:14:35;;;;;;;2.15;0.20;;;8.20;94.50;;;;;;5119178;27;20050;-72
2022/04/03 12:17:07;;;;;;;1.30;0.20;;;7.90;94.10;;;;;;5118871;27;20118;-72
2022/04/03 12:19:37;;;;;;;0.93;0.10;;;7.60;94.50;;;;;;5101848;27;20058;-72
2022/04/03 12:22:04;;;;;;;3.30;0.20;;;7.30;95.20;;;;;;5101735;27;20076;-72
2022/04/03 12:24:36;;;;;;;2.80;0.30;;;7.40;95.00;;;;;;5118067;27;20130;-72
2022/04/03 12:27:12;;;;;;;2.47;0.20;;;7.40;95.30;;;;;;5118578;27;20047;-72
2022/04/03 12:29:39;;;;;;;3.45;0.20;;;7.80;95.50;;;;;;5119107;27;20086;-72
2022/04/03 12:32:12;;;;;;;1.27;0.25;;;8.50;95.30;;;;;;5118500;27;20043;-72
2022/04/03 12:34:43;;;;;;;2.30;0.30;;;9.10;94.30;;;;;;5118864;27;20043;-72
2022/04/03 12:37:10;;;;;;;5.22;0.47;;;9.40;95.10;;;;;;5101711;27;20056;-72
2022/04/03 12:39:51;;;;;;;1.35;0.10;;;10.40;94.60;;;;;;5118626;27;20086;-73
2022/04/03 12:42:23;;;;;;;2.42;0.30;;;11.00;94.10;;;;;;5118493;27;20047;-72
2022/04/03 12:44:59;;;;;;;0.75;0.30;;;11.80;93.30;;;;;;5119281;27;20059;-73
2022/04/03 12:47:47;;;;;;;1.98;0.40;;;11.70;92.70;;;;;;5136583;27;20047;-73
2022/04/03 12:50:16;;;;;;;0.70;0.13;;;11.20;92.70;;;;;;5117751;27;20047;-72
2022/04/03 12:52:47;;;;;;;4.05;0.47;;;11.00;92.90;;;;;;5101068;27;20086;-72
2022/04/03 13:00:55;;;;;;;3.58;0.60;;;10.20;93.30;;;;;;5117833;27;20143;-72
2022/04/03 13:03:26;;;;;;;4.15;0.40;;;10.10;94.00;;;;;;5118479;27;20062;-73
2022/04/03 13:05:55;;;;;;;2.28;0.60;;;10.10;93.70;;;;;;5100913;27;20054;-72